Jordan, MN (55352)

1:40 PM CST on February 14, 2016 (GMT -0600)
APRSWXNET | | Change Station
CLOSE
Current Station
Personal Weather Station
Location: Jordan, MN
Elevation: 931 ft
Nearby Weather Stations

Elev 931 ft 44.66 °N, 93.52 °W | Updated 33 minutes ago

Snow
Snow
18 °F
Feels Like 7 °F
N
9
Wind Variable Wind from SE
Gusts 16.0 mph

Today
High -- | Low -- °F
--% Chance of Precip.
Yesterday
High -- | Low -- °F
Precip. -- in
Pressure 30.00 in
Visibility 3.0 miles
Clouds Mostly Cloudy 2100 ft
Overcast 3600 ft
Windchill 7 °F
Dew Point 14 °F
Humidity 83%
Rainfall in
Snow Depth Not available.
7:16 AM 5:41 PM
Waxing Crescent, 44% visible
METAR KFCM 141853Z 16014KT 3SM -SN BKN021 OVC036 M07/M12 A2994 RMK AO2 SNB30 SLP157 P0000 T10721122
Pressure 30.00 in
Visibility 3.0 miles
Clouds Mostly Cloudy 2100 ft
Overcast 3600 ft
Windchill 7 °F
Dew Point 14 °F
Humidity 83%
Rainfall in
Snow Depth Not available.
7:16 AM 5:41 PM
Waxing Crescent, 44% visible
METAR KFCM 141853Z 16014KT 3SM -SN BKN021 OVC036 M07/M12 A2994 RMK AO2 SNB30 SLP157 P0000 T10721122

10-Day Weather Forecast

Almanac

Astronomy

Feb. 14, 2016 Rise Set
Actual Time
Civil Twilight
Nautical Twilight
Astronomical Twilight
Moon
Length of Visible Light
Length of Day
Tomorrow will be .
, % of the Moon is Illuminated

Today's Extremes

State Highs State Lows

Community

WunderPhotos

Upload Photos

1,892,878 photos uploaded!

WunderBlog® & News

Nearby

Air Quality

  Air Quality AQ Index Pollutant
Not available.

Snow Depth

Station Depth Elevation

Earthquake Activity

City Distance Mag. Time & Date
Minimum magnitude displayed is 2.5.

Coastal Water Temperatures

Place Temperature

Stations

Nearby Weather Stations

Station Location Temp. Windchill Dew Point Humidity Wind Precip. Elev Updated Type
                   

Watches & Warnings

There are currently no watches in effect.